Aviation Digital Data Service (ADDS)

Output produced by METARs form (0639 UTC 24 March 2019)
found at http://www.aviationweather.gov/metar/data/
 
PADK 240556Z AUTO 24027G33KT 10SM SCT036 03/M01 A2952 RMK AO2 PK WND 23035/0546 SLP996 T00331011 10061 20033 51021
PAMR 240553Z AUTO 00000KT 10SM OVC065 04/02 A2999 RMK AO2 SLP158 60000 T00440017 10083 20044 51034 TSNO
PANC 240553Z 15013G19KT 10SM BKN055 OVC070 05/01 A2998 RMK AO2 RAE0457B33E44 SLP155 4/011 P0000 60000 T00500011 10089 20050 51031
PANC 240528Z 2406/2512 15012G22KT P6SM VCSH OVC060 
     TEMPO 2406/2409 15012KT 6SM -RA OVC045 
     FM241500 15011KT P6SM BKN100 
     FM241800 VRB03KT P6SM VCSH BKN070 WS020/12030KT 
     FM250200 15012G20KT P6SM BKN070
       
PANI 240556Z AUTO 13011KT 10SM CLR 03/M01 A2977 RMK AO2 SLP050 T00331011 10078 20033 53021
PAAK 240556Z AUTO 23012KT 7SM FEW035 03/M02 A2957 RMK AO2 SLP014 T00331017 10072 20028 51028
PABR 240616Z AUTO 07004KT 6SM BLSN BKN006 OVC100 M12/M13 A2984 RMK AO2 T11171128 TSNO
PABR 240538Z 2406/2506 06007KT 4SM BLSN FEW010 OVC100 
     FM241500 11010KT 4SM BR OVC020 
     FM242100 15009KT 6SM BR SCT020 BKN100
       
PABE 240611Z 17015KT 7SM FEW009 SCT023 OVC028 02/02 A2973 RMK AO2 T00220017
PABE 240531Z 2406/2506 14010G18KT P6SM SCT045 BKN100 
     FM240800 16011KT P6SM VCSH FEW008 SCT025 
     FM241200 15015G25KT 4SM -RA BR SCT007 OVC015 
     FM242100 18015KT 5SM BR OVC025
       
PABV 240556Z AUTO 07007KT 10SM -RA BKN034 OVC050 04/03 A3001 RMK AO2 SLP172 P0001 60004 T00440033 10089 20039 51035
PACD 240553Z AUTO 15018G26KT 10SM CLR 03/M02 A2973 RMK AO2 PK WND 15027/0537 SLP068 T00281017 10050 20022 53001 TSNO
PACD 240531Z 2406/2506 15017KT P6SM SCT030 
     FM241000 15015G25KT P6SM -RA SCT009 BKN015 
     FM241600 15013KT P6SM OVC010 
     FM241900 16011KT P6SM BKN025
       
PACV 240636Z 12003KT 10SM -RA SCT029 OVC035 06/03 A3018 RMK AO2 P0000 T00560033
PACV 240528Z 2406/2506 11010KT P6SM VCSH BKN035 
     TEMPO 2406/2410 BKN006 BKN018 
     FM242100 10011KT 6SM -RA OVC025
       
PASC 240553Z 24007KT 10SM SCT170 M14/M17 A2982 RMK AO2 SLP100 T11441172 11094 21144 53008
PASC 240538Z 2406/2506 29006KT P6SM SCT150 BKN210 
     FM241500 VRB04KT P6SM OVC010 
     FM241900 24004KT P6SM BKN100
       
PABI 240553Z AUTO 19025G37KT 10SM BKN120 09/M01 A2983 RMK AO2 PK WND 19041/0514 SLP115 T00941006 10133 20094 52027 TSNO
PADL 240550Z 13007KT 10SM BKN070 03/M01 A2985
PADL 240531Z 2406/2506 13007KT P6SM BKN070 
     FM241500 11007KT 4SM BR SCT002 SCT050 
     FM241800 12012KT P6SM SCT010 SCT050 
     FM242100 12012G20KT P6SM BKN030 
     FM250400 12008KT 4SM BR SCT020 BKN050
       
PAFA 240553Z 18004KT 10SM SCT110 BKN170 01/M04 A2982 RMK AO2 SLP107 T00111044 10111 20011 53026 PNO $
PAFA 240538Z 2406/2512 VRB03KT P6SM FEW090 SCT110 BKN170 
     FM241200 VRB03KT P6SM VCSH BKN050
       
PAGA 240556Z 12007KT 10SM FEW070 SCT085 OVC120 03/M04 A2982 RMK AO2 SLP100 T00331044 10056 20033 53019
PAGA 240538Z 2406/2506 09007KT P6SM FEW100 SCT200 
     FM241700 12012G19KT P6SM OVC100 
     FM242200 15020G30KT 3SM -RA SCT025 OVC040
       
PAGM 240637Z AUTO 4SM -SN BR OVC005 M05/M06 A2944 RMK AO2 UPE09SNB09 P0000 FZRANO $
PAGK 240553Z AUTO 15013G22KT 10SM CLR 06/M02 A3000 RMK AO2 SLP178 60000 T00561022 10094 20050 51031 TSNO
PAGK 240528Z 2406/2506 16012G22KT P6SM BKN070 
     TEMPO 2409/2412 16011KT 
     FM242000 16012G22KT P6SM SCT060
       
PAGS 240556Z AUTO 00000KT 10SM OVC046 04/04 A3028 RMK AO2 SLP256 T00440039 10100 20039 51023
PAGS 240531Z 2406/2506 33003KT P6SM SCT035 BKN070 
     FM241200 VRB03KT P6SM SCT020 AMD LTD TO CLD VIS AND WIND
       
PAHN 240554Z AUTO VRB04KT 10SM OVC070 07/03 A3026 RMK AO2 SLP251 60000 T00670033 10100 20050 51025 TSNO
PAHN 240531Z 2406/2506 07008KT P6SM SCT070 
     FM241000 31008KT P6SM SCT070 AMD LTD TO CLD VIS AND WIND
       
PAHO 240553Z AUTO 00000KT 10SM FEW032 BKN100 OVC120 06/03 A2997 RMK AO2 SLP150 T00560028 10083 20056 51026 TSNO
PAHO 240528Z 2406/2506 VRB05KT P6SM VCSH BKN035 BKN050
       
PAHP 240630Z AUTO 16020KT 2 1/2SM UP BR BKN005 OVC011 00/M01 A2949 RMK AO2 UPB08 CIG 003V007 P0000 FZRANO
PAIL 240553Z AUTO 10005KT 10SM SCT022 SCT036 OVC055 03/01 A2993 RMK AO2 SLP139 T00280011 10067 20028 51026 TSNO
PAIL 240531Z 2406/2506 11007KT P6SM SCT020 BKN050 
     FM241800 12010G16KT P6SM SCT030 
     FM250200 13008KT P6SM SCT030
       
PAJN 240553Z 10009KT 10SM FEW034 BKN043 BKN080 07/04 A3028 RMK AO2 RAB42E51 SLP252 P0000 60000 T00720039 10106 20061 51022
PAJN 240531Z 2406/2506 10005KT P6SM SCT035 BKN070 OVC100 
     FM241400 00000KT P6SM BCFG FEW001 SCT040 
     FM241600 VRB03KT P6SM BKN150
       
PAFE 240556Z AUTO 08007KT 10SM BKN043 07/03 A3029 RMK AO2 SLP271 60001 T00670033 10106 20056 51017 $
PAEN 240553Z AUTO 00000KT 10SM OVC028 03/02 A3000 RMK AO2 RAB03E47UPB47E50 SLP161 P0001 60001 T00280022 10050 20028 51023 TSNO
PAEN 240528Z 2406/2506 VRB05KT P6SM -RA OVC035 
     TEMPO 2409/2412 BKN025 
     FM241200 VRB03KT P6SM BKN025 OVC050 
     FM241800 02008KT P6SM VCSH BKN050
       
PAKT 240553Z AUTO 23003KT 10SM CLR 03/02 A3029 RMK AO2 SLP257 60003 T00280017 10094 20022 51013 TSNO
PAKT 240531Z 2406/2506 VRB03KT P6SM SCT050 
     FM241300 19003KT 1SM BR FEW007 SCT200 
     FM241700 31004KT P6SM SKC AMD LTD TO CLD VIS AND WIND 2406/2415
       
PAKN 240554Z 17008KT 10SM SCT065 03/M02 A2986 RMK AO2 SLP112 T00281017 10094 20028 53028 $
PAKN 240531Z 2406/2506 18009KT P6SM SCT060 
     FM242000 15012G20KT P6SM FEW040 SCT150 
     FM250000 15010KT P6SM BKN100
       
PAKW 240553Z AUTO 04005KT 10SM CLR 06/04 A3024 RMK AO2 SLP240 60000 T00610044 10106 20050 51017 TSNO
PAKW 240531Z 2406/2506 VRB03KT P6SM FEW040 
     FM240800 04004KT P6SM SCT200 
     TEMPO 2413/2417 1SM BR AMD LTD TO CLD VIS AND WIND
       
PADQ 240610Z AUTO 28004KT 10SM OVC017 02/01 A2995 RMK AO2 T00220011 TSNO
PADQ 240528Z 2406/2506 09010KT P6SM VCSH SCT018 
     TEMPO 2406/2409 BKN018 
     FM241500 03008KT P6SM VCSH BKN018 
     FM241800 02011KT 6SM -RA OVC015 
     FM250000 11005KT 6SM -RA OVC015
       
PAOT 240553Z 12013KT 10SM SCT080 BKN095 BKN110 M01/M06 A2972 RMK AO2 SLP065 T10111056 10022 21011 52007
PAOT 240538Z 2406/2506 11010KT P6SM OVC090 
     FM240900 12018KT 6SM -SN BR SCT025 BKN035 OVC050 
     FM242000 13025G32KT 2SM -SN BR SCT007 OVC015 
     FM242200 14027KT 1/2SM -SN FG OVC005
       
PAMC 240553Z AUTO 15007KT 10SM -RA FEW055 OVC080 03/M01 A2986 RMK AO2 RAB0457E08B44 SLP118 P0000 60000 T00331011 10044 20028 51026 TSNO
PAMC 240538Z 2406/2506 11008KT P6SM SCT100 
     FM240800 19004KT P6SM VCSH BKN050 OVC100 
     FM242000 17011G18KT 6SM -RA BR SCT025 OVC050
       
PANN 240553Z AUTO 27004KT 10SM CLR 02/M06 A2983 RMK AO2 SLP111 T00171061 10050 20017 53027 TSNO
PAOM 240553Z 09010KT 10SM FEW042 OVC055 00/M01 A2965 RMK AO2 SLP039 T00001011 10011 20000 53006 $
PAOM 240538Z 2406/2506 09013KT P6SM SKC 
     FM241200 10021KT 4SM -SHRASN BR OVC025 
     FM241500 11022G30KT 1 1/2SM -SHSN BR OVC007 
     FM241900 13024G32KT 1SM -RASN OVC007 
     FM250300 16015KT P6SM VCSH SCT007 OVC025
       
PAAQ 240553Z AUTO 13013KT 6SM RA BR SCT025 OVC031 05/03 A3000 RMK AO2 SLP163 P0005 60006 T00500033 10100 20044 53036 TSNO
PAAQ 240528Z 2406/2506 13010G18KT P6SM VCSH OVC040 
     TEMPO 2406/2409 -RA BKN025 
     FM241800 14015G25KT P6SM OVC100
       
PAPG 240556Z 00000KT 10SM CLR 05/02 A3029 RMK AO2 SLP262 T00500022 10106 20044 51015
PAPG 240531Z 2406/2506 VRB03KT P6SM SCT050 
     FM241300 00000KT 1SM BR FEW007 
     FM241800 VRB03KT P6SM SCT200 AMD LTD TO CLD VIS AND WIND 2406/2415
       
PAPO 240618Z AUTO 12011KT 10SM SCT014 BKN024 OVC032 M01/M03 A2970 RMK AO2 UPE06 P0000 FZRANO
PASD 240626Z AUTO 14005KT 5SM -RA BR BKN014 OVC020 04/03 A2985 RMK AO2 PNO $
PASD 240531Z 2406/2506 VRB04KT P6SM SCT030 BKN050 
     FM241500 16007KT P6SM OVC025 AMD LTD TO CLD VIS AND WIND
       
PAWD 240553Z AUTO 19007KT 10SM -RA OVC045 05/03 A3004 RMK AO2 SLP172 P0002 60005 T00500033 10061 20050 51035 TSNO $
PASH 240456Z AUTO 00000KT 4SM HZ BKN090 M08/M11 A2968 RMK AO2 SLP051 T10781106 FZRANO
PASI 240553Z 08006KT 10SM BKN047 07/03 A3022 RMK AO2 SLP232 T00720033 10106 20072 51017
PASI 240531Z 2406/2506 14008KT P6SM BKN050 
     FM241200 07004KT P6SM BKN150
       
PAGY 240553Z AUTO 03006KT 10SM -RA FEW021 OVC055 06/03 A3026 RMK AO2 RAB10E19B48 SLP248 P0000 60000 T00610028 10100 20061 51026 TSNO
PAGY 240531Z 2406/2506 04003KT P6SM SCT070 BKN100 AMD LTD TO CLD VIS AND WIND
       
PASX 240628Z AUTO 00000KT 10SM SCT024 02/01 A3002 RMK AO2 RAE0559 P0000 FZRANO
PAPB 240620Z AUTO 17021G29KT 3SM BR OVC004 02/02 A2935 RMK AO2 PK WND 17032/0555 UPB09E12SNB0559E09 P0001 T00220017 TSNO
PASN 240553Z AUTO 17024G30KT 3SM -SN BR BKN007 OVC011 03/02 A2931 RMK AO2 PK WND 17035/0509 SLP926 P0001 60002 T00280017 10028 20006 56014 TSNO $
PASN 240531Z 2406/2506 17025G35KT 4SM -RASN OVC015 
     TEMPO 2406/2408 2SM BR OVC006 
     FM240800 21022G30KT P6SM -SHRASN BKN015 
     FM241500 22018KT P6SM VCSH OVC035 
     FM250300 14016KT P6SM -SHRA BKN015
       
PATK 240553Z AUTO 00000KT 10SM -RA OVC036 05/02 A2998 RMK AO2 RAB16 SLP158 P0000 60000 T00500022 10089 20050 53036 TSNO
PATK 240528Z 2406/2506 VRB03KT P6SM -RA OVC035 
     FM241800 VRB05KT P6SM VCSH OVC060
       
PADU 240556Z AUTO 16016G21KT 10SM SCT027 SCT039 OVC060 04/01 A2962 RMK AO2 SLP036 6//// T00390006 10039 20022 56011
PADU 240532Z 2406/2506 16014G20KT P6SM -SHRA BKN025 
     FM241000 19010KT P6SM BKN030
       
PAVD 240556Z 09004KT 10SM -RA SCT035 BKN065 04/03 A3014 RMK AO2 SLP232 P0000 60004 T00390033 10056 20033 51050
PAVD 240528Z 2406/2506 00000KT 6SM -RA OVC035 
     FM242100 VRB03KT 5SM -RA OVC020 AMD LTD TO CLD VIS AND WIND
       
PAWS 240625Z AUTO 08004KT 10SM -RA BKN028 OVC034 04/04 A3003 RMK AO2 P0000
PAWG 240556Z 12007KT 10SM CLR 05/03 A3030 RMK AO2 SLP261 60001 T00500033 10106 20050 51014
PAWG 240531Z 2406/2506 12008KT P6SM SCT050 
     FM240900 12005KT P6SM SCT200 AMD LTD TO CLD VIS AND WIND 2406/2415
       
PAYA 240553Z AUTO 07005KT 9SM FEW021 OVC042 06/04 A3024 RMK AO2 SLP239 60010 T00560044 10078 20056 51021 TSNO $
PAYA 240531Z 2406/2506 09007KT P6SM VCSH SCT010 OVC015 
     TEMPO 2406/2410 3SM -SHRA BR 
     FM241200 08007KT P6SM VCSH SCT012 BKN030 OVC060 
     FM250100 07003KT P6SM BKN025 OVC050 AMD LTD TO CLD VIS AND WIND